createdAt,value
2023-01-22T00:02:03.000Z,272.59
2023-01-22T00:03:27.000Z,272.59
2023-01-22T00:05:31.000Z,272.52
2023-01-22T00:06:55.000Z,272.52
2023-01-22T00:08:59.000Z,272.52
2023-01-22T00:10:23.000Z,272.59
2023-01-22T00:12:27.000Z,272.59
2023-01-22T00:15:16.000Z,272.59
2023-01-22T00:16:41.000Z,272.59
2023-01-22T00:18:44.000Z,272.52
2023-01-22T00:20:08.000Z,272.59
2023-01-22T00:22:12.000Z,272.52
2023-01-22T00:23:36.000Z,272.52
2023-01-22T00:25:40.000Z,272.52
2023-01-22T00:27:04.000Z,272.59
2023-01-22T00:29:08.000Z,272.59
2023-01-22T00:30:32.000Z,272.59
2023-01-22T00:32:36.000Z,272.59
2023-01-22T00:34:00.000Z,272.65
2023-01-22T00:36:04.000Z,272.59
2023-01-22T00:37:28.000Z,272.65
2023-01-22T00:39:31.000Z,272.65
2023-01-22T00:40:56.000Z,272.59
2023-01-22T00:42:59.000Z,272.59
2023-01-22T00:44:24.000Z,272.65
2023-01-22T00:46:27.000Z,272.65
2023-01-22T00:47:52.000Z,272.59
2023-01-22T00:49:55.000Z,272.59
2023-01-22T00:52:44.000Z,272.59
2023-01-22T00:54:08.000Z,272.65
2023-01-22T00:56:12.000Z,272.59
2023-01-22T00:57:36.000Z,272.59
2023-01-22T00:59:40.000Z,272.65
2023-01-22T01:01:04.000Z,272.59
2023-01-22T01:03:08.000Z,272.65
2023-01-22T01:04:32.000Z,272.65
2023-01-22T01:06:35.000Z,272.65
2023-01-22T01:08:00.000Z,272.65
2023-01-22T01:10:03.000Z,272.65
2023-01-22T01:11:28.000Z,272.65
2023-01-22T01:13:31.000Z,272.65
2023-01-22T01:14:56.000Z,272.65
2023-01-22T01:16:59.000Z,272.65
2023-01-22T01:18:24.000Z,272.65
2023-01-22T01:20:27.000Z,272.65
2023-01-22T01:21:51.000Z,272.65
2023-01-22T01:23:55.000Z,272.65
2023-01-22T01:25:19.000Z,272.65
2023-01-22T01:27:23.000Z,272.65
2023-01-22T01:30:12.000Z,272.59
2023-01-22T01:31:36.000Z,272.65
2023-01-22T01:33:40.000Z,272.59
2023-01-22T01:35:04.000Z,272.65
2023-01-22T01:37:08.000Z,272.59
2023-01-22T01:38:32.000Z,272.59
2023-01-22T01:40:36.000Z,272.65
2023-01-22T01:42:00.000Z,272.65
2023-01-22T01:44:04.000Z,272.59
2023-01-22T01:45:28.000Z,272.59
2023-01-22T01:47:32.000Z,272.59
2023-01-22T01:48:56.000Z,272.59
2023-01-22T01:51:00.000Z,272.65
2023-01-22T01:52:24.000Z,272.59
2023-01-22T01:54:28.000Z,272.65
2023-01-22T01:55:52.000Z,272.65
2023-01-22T01:57:55.000Z,272.65
2023-01-22T01:59:20.000Z,272.65
2023-01-22T02:01:23.000Z,272.59
2023-01-22T02:02:48.000Z,272.65
2023-01-22T02:04:51.000Z,272.59
2023-01-22T02:07:41.000Z,272.65
2023-01-22T02:09:05.000Z,272.65
2023-01-22T02:11:08.000Z,272.59
2023-01-22T02:12:33.000Z,272.65
2023-01-22T02:14:36.000Z,272.65
2023-01-22T02:16:01.000Z,272.65
2023-01-22T02:18:04.000Z,272.65
2023-01-22T02:19:29.000Z,272.65
2023-01-22T02:21:32.000Z,272.65
2023-01-22T02:22:57.000Z,272.65
2023-01-22T02:25:00.000Z,272.65
2023-01-22T02:26:25.000Z,272.65
2023-01-22T02:28:28.000Z,272.65
2023-01-22T02:29:53.000Z,272.65
2023-01-22T02:31:56.000Z,272.65
2023-01-22T02:33:21.000Z,272.65
2023-01-22T02:35:24.000Z,272.71
2023-01-22T02:36:48.000Z,272.65
2023-01-22T02:38:52.000Z,272.65
2023-01-22T02:40:16.000Z,272.65
2023-01-22T02:42:21.000Z,272.65
2023-01-22T02:45:10.000Z,272.65
2023-01-22T02:46:34.000Z,272.65
2023-01-22T02:48:38.000Z,272.65
2023-01-22T02:50:02.000Z,272.65
2023-01-22T02:52:06.000Z,272.65
2023-01-22T02:53:30.000Z,272.65
2023-01-22T02:55:33.000Z,272.65
2023-01-22T02:56:58.000Z,272.71
2023-01-22T02:59:01.000Z,272.65
2023-01-22T03:00:26.000Z,272.65
2023-01-22T03:02:29.000Z,272.65
2023-01-22T03:03:54.000Z,272.65
2023-01-22T03:05:57.000Z,272.65
2023-01-22T03:07:22.000Z,272.65
2023-01-22T03:09:25.000Z,272.71
2023-01-22T03:10:50.000Z,272.71
2023-01-22T03:12:53.000Z,272.65
2023-01-22T03:14:18.000Z,272.71
2023-01-22T03:16:21.000Z,272.65
2023-01-22T03:17:46.000Z,272.65
2023-01-22T03:19:49.000Z,272.65
2023-01-22T03:22:38.000Z,272.71
2023-01-22T03:24:02.000Z,272.65
2023-01-22T03:26:06.000Z,272.65
2023-01-22T03:27:30.000Z,272.65
2023-01-22T03:29:34.000Z,272.65
2023-01-22T03:30:58.000Z,272.65
2023-01-22T03:33:02.000Z,272.65
2023-01-22T03:34:26.000Z,272.65
2023-01-22T03:36:30.000Z,272.65
2023-01-22T03:37:54.000Z,272.65
2023-01-22T03:39:58.000Z,272.65
2023-01-22T03:41:22.000Z,272.65
2023-01-22T03:43:26.000Z,272.65
2023-01-22T03:44:50.000Z,272.65
2023-01-22T03:46:53.000Z,272.65
2023-01-22T03:48:18.000Z,272.65
2023-01-22T03:50:21.000Z,272.71
2023-01-22T03:51:46.000Z,272.71
2023-01-22T03:53:49.000Z,272.71
2023-01-22T03:55:14.000Z,272.77
2023-01-22T03:57:17.000Z,272.71
2023-01-22T04:00:07.000Z,272.71
2023-01-22T04:01:31.000Z,272.71
2023-01-22T04:03:35.000Z,272.71
2023-01-22T04:04:59.000Z,272.71
2023-01-22T04:07:03.000Z,272.71
2023-01-22T04:08:27.000Z,272.65
2023-01-22T04:10:30.000Z,272.65
2023-01-22T04:11:55.000Z,272.71
2023-01-22T04:13:58.000Z,272.71
2023-01-22T04:15:23.000Z,272.65
2023-01-22T04:17:26.000Z,272.71
2023-01-22T04:18:51.000Z,272.71
2023-01-22T04:20:54.000Z,272.71
2023-01-22T04:22:19.000Z,272.71
2023-01-22T04:24:22.000Z,272.65
2023-01-22T04:25:47.000Z,272.65
2023-01-22T04:27:50.000Z,272.71
2023-01-22T04:29:14.000Z,272.71
2023-01-22T04:31:18.000Z,272.71
2023-01-22T04:32:43.000Z,272.71
2023-01-22T04:34:46.000Z,272.77
2023-01-22T04:37:35.000Z,272.71
2023-01-22T04:39:00.000Z,272.77
2023-01-22T04:41:03.000Z,272.77
2023-01-22T04:42:28.000Z,272.71
2023-01-22T04:44:31.000Z,272.71
2023-01-22T04:45:55.000Z,272.71
2023-01-22T04:47:59.000Z,272.71
2023-01-22T04:49:23.000Z,272.71
2023-01-22T04:51:27.000Z,272.71
2023-01-22T04:52:51.000Z,272.71
2023-01-22T04:54:55.000Z,272.71
2023-01-22T04:56:19.000Z,272.71
2023-01-22T04:58:23.000Z,272.71
2023-01-22T04:59:47.000Z,272.71
2023-01-22T05:01:51.000Z,272.71
2023-01-22T05:03:15.000Z,272.71
2023-01-22T05:05:19.000Z,272.71
2023-01-22T05:06:43.000Z,272.71
2023-01-22T05:08:46.000Z,272.71
2023-01-22T05:10:11.000Z,272.77
2023-01-22T05:12:14.000Z,272.77
2023-01-22T05:15:03.000Z,272.84
2023-01-22T05:16:44.000Z,272.77
2023-01-22T05:18:48.000Z,272.77
2023-01-22T05:20:12.000Z,272.77
2023-01-22T05:22:16.000Z,272.77
2023-01-22T05:23:41.000Z,272.77
2023-01-22T05:25:44.000Z,272.84
2023-01-22T05:27:09.000Z,272.84
2023-01-22T05:29:12.000Z,272.84
2023-01-22T05:30:36.000Z,272.84
2023-01-22T05:32:40.000Z,272.84
2023-01-22T05:34:05.000Z,272.84
2023-01-22T05:36:08.000Z,272.84
2023-01-22T05:37:32.000Z,272.77
2023-01-22T05:39:36.000Z,272.77
2023-01-22T05:41:00.000Z,272.77
2023-01-22T05:43:04.000Z,272.77
2023-01-22T05:44:28.000Z,272.71
2023-01-22T05:46:35.000Z,272.71
2023-01-22T05:47:59.000Z,272.71
2023-01-22T05:50:03.000Z,272.71
2023-01-22T05:52:52.000Z,272.71
2023-01-22T05:54:16.000Z,272.71
2023-01-22T05:56:20.000Z,272.71
2023-01-22T05:57:44.000Z,272.71
2023-01-22T05:59:47.000Z,272.71
2023-01-22T06:01:12.000Z,272.71
2023-01-22T06:03:15.000Z,272.71
2023-01-22T06:04:40.000Z,272.71
2023-01-22T06:06:43.000Z,272.71
2023-01-22T06:08:08.000Z,272.71
2023-01-22T06:10:11.000Z,272.71
2023-01-22T06:11:36.000Z,272.71
2023-01-22T06:13:39.000Z,272.71
2023-01-22T06:15:04.000Z,272.65
2023-01-22T06:17:07.000Z,272.65
2023-01-22T06:18:31.000Z,272.71
2023-01-22T06:20:35.000Z,272.71
2023-01-22T06:21:59.000Z,272.71
2023-01-22T06:24:03.000Z,272.71
2023-01-22T06:25:27.000Z,272.71
2023-01-22T06:27:31.000Z,272.71
2023-01-22T06:30:20.000Z,272.71
2023-01-22T06:31:45.000Z,272.71
2023-01-22T06:33:48.000Z,272.71
2023-01-22T06:35:13.000Z,272.71
2023-01-22T06:37:16.000Z,272.71
2023-01-22T06:38:41.000Z,272.71
2023-01-22T06:40:44.000Z,272.77
2023-01-22T06:42:09.000Z,272.77
2023-01-22T06:44:12.000Z,272.71
2023-01-22T06:45:37.000Z,272.71
2023-01-22T06:47:40.000Z,272.71
2023-01-22T06:49:05.000Z,272.71
2023-01-22T06:51:08.000Z,272.71
2023-01-22T06:52:33.000Z,272.71
2023-01-22T06:54:36.000Z,272.71
2023-01-22T06:56:00.000Z,272.71
2023-01-22T06:58:04.000Z,272.71
2023-01-22T06:59:29.000Z,272.77
2023-01-22T07:01:32.000Z,272.77
2023-01-22T07:02:57.000Z,272.77
2023-01-22T07:05:00.000Z,272.77
2023-01-22T07:07:49.000Z,272.77
2023-01-22T07:09:14.000Z,272.77
2023-01-22T07:11:17.000Z,272.77
2023-01-22T07:12:41.000Z,272.77
2023-01-22T07:14:45.000Z,272.77
2023-01-22T07:16:09.000Z,272.77
2023-01-22T07:18:13.000Z,272.77
2023-01-22T07:19:37.000Z,272.77
2023-01-22T07:21:41.000Z,272.77
2023-01-22T07:23:05.000Z,272.77
2023-01-22T07:25:09.000Z,272.77
2023-01-22T07:26:33.000Z,272.77
2023-01-22T07:28:36.000Z,272.77
2023-01-22T07:30:01.000Z,272.77
2023-01-22T07:32:04.000Z,272.77
2023-01-22T07:33:29.000Z,272.84
2023-01-22T07:35:32.000Z,272.84
2023-01-22T07:36:57.000Z,272.9
2023-01-22T07:39:00.000Z,272.9
2023-01-22T07:40:25.000Z,272.9
2023-01-22T07:42:28.000Z,272.9
2023-01-22T07:46:50.000Z,272.9
2023-01-22T07:48:48.000Z,272.9
2023-01-22T07:50:12.000Z,272.9
2023-01-22T07:52:16.000Z,272.9
2023-01-22T07:53:40.000Z,272.96
2023-01-22T07:55:44.000Z,272.96
2023-01-22T07:57:08.000Z,272.96
2023-01-22T07:59:12.000Z,273.02
2023-01-22T08:00:36.000Z,273.02
2023-01-22T08:02:40.000Z,272.96
2023-01-22T08:04:04.000Z,273.02
2023-01-22T08:06:08.000Z,272.96
2023-01-22T08:07:32.000Z,272.96
2023-01-22T08:09:36.000Z,273.02
2023-01-22T08:11:00.000Z,273.09
2023-01-22T08:13:03.000Z,273.02
2023-01-22T08:14:28.000Z,273.02
2023-01-22T08:16:31.000Z,273.02
2023-01-22T08:17:56.000Z,273.09
2023-01-22T08:19:59.000Z,273.09
2023-01-22T08:21:24.000Z,273.09
2023-01-22T08:23:27.000Z,273.09
2023-01-22T08:26:17.000Z,273.15
2023-01-22T08:27:41.000Z,273.09
2023-01-22T08:29:44.000Z,273.15
2023-01-22T08:31:09.000Z,273.09
2023-01-22T08:33:28.000Z,273.15
2023-01-22T08:34:53.000Z,273.15
2023-01-22T08:36:56.000Z,273.21
2023-01-22T08:38:21.000Z,273.21
2023-01-22T08:40:24.000Z,273.21
2023-01-22T08:41:49.000Z,273.21
2023-01-22T08:43:52.000Z,273.21
2023-01-22T08:45:17.000Z,273.21
2023-01-22T08:47:21.000Z,273.21
2023-01-22T08:48:46.000Z,273.21
2023-01-22T08:50:49.000Z,273.27
2023-01-22T08:52:14.000Z,273.34
2023-01-22T08:54:18.000Z,273.27
2023-01-22T08:55:44.000Z,273.27
2023-01-22T08:57:48.000Z,273.27
2023-01-22T08:59:14.000Z,273.27
2023-01-22T09:01:19.000Z,273.27
2023-01-22T09:04:09.000Z,273.27
2023-01-22T09:05:33.000Z,273.34
2023-01-22T09:07:37.000Z,273.27
2023-01-22T09:09:01.000Z,273.34
2023-01-22T09:11:05.000Z,273.34
2023-01-22T09:12:30.000Z,273.34
2023-01-22T09:14:34.000Z,273.34
2023-01-22T09:15:58.000Z,273.34
2023-01-22T09:18:02.000Z,273.34
2023-01-22T09:19:26.000Z,273.34
2023-01-22T09:21:32.000Z,273.4
2023-01-22T09:22:59.000Z,273.34
2023-01-22T09:25:05.000Z,273.4
2023-01-22T09:26:32.000Z,273.4
2023-01-22T09:28:38.000Z,273.34
2023-01-22T09:30:04.000Z,273.4
2023-01-22T09:32:10.000Z,273.4
2023-01-22T09:33:37.000Z,273.4
2023-01-22T09:35:43.000Z,273.4
2023-01-22T09:37:10.000Z,273.4
2023-01-22T09:39:16.000Z,273.4
2023-01-22T09:42:07.000Z,273.46
2023-01-22T09:43:33.000Z,273.4
2023-01-22T09:45:39.000Z,273.4
2023-01-22T09:47:04.000Z,273.4
2023-01-22T09:49:07.000Z,273.34
2023-01-22T09:50:34.000Z,273.34
2023-01-22T09:52:40.000Z,273.34
2023-01-22T09:54:04.000Z,273.34
2023-01-22T09:56:08.000Z,273.34
2023-01-22T09:57:33.000Z,273.4
2023-01-22T09:59:36.000Z,273.4
2023-01-22T10:01:01.000Z,273.4
2023-01-22T10:03:05.000Z,273.4
2023-01-22T10:04:29.000Z,273.4
2023-01-22T10:06:33.000Z,273.4
2023-01-22T10:07:57.000Z,273.34
2023-01-22T10:10:01.000Z,273.34
2023-01-22T10:11:26.000Z,273.34
2023-01-22T10:13:30.000Z,273.34
2023-01-22T10:14:56.000Z,273.34
2023-01-22T10:18:32.000Z,273.34
2023-01-22T10:19:06.000Z,273.34
2023-01-22T10:21:49.000Z,273.34
2023-01-22T10:23:14.000Z,273.4
2023-01-22T10:25:18.000Z,273.4
2023-01-22T10:26:44.000Z,273.46
2023-01-22T10:28:50.000Z,273.46
2023-01-22T10:30:17.000Z,273.46
2023-01-22T10:32:23.000Z,273.52
2023-01-22T10:33:50.000Z,273.52
2023-01-22T10:35:56.000Z,273.52
2023-01-22T10:37:22.000Z,273.52
2023-01-22T10:39:28.000Z,273.59
2023-01-22T10:40:55.000Z,273.59
2023-01-22T10:43:01.000Z,273.59
2023-01-22T10:44:28.000Z,273.59
2023-01-22T10:46:34.000Z,273.59
2023-01-22T10:48:00.000Z,273.59
2023-01-22T10:50:06.000Z,273.59
2023-01-22T10:51:33.000Z,273.65
2023-01-22T10:53:39.000Z,273.65
2023-01-22T10:55:06.000Z,273.65
2023-01-22T10:57:12.000Z,273.59
2023-01-22T11:00:03.000Z,273.65
2023-01-22T11:01:30.000Z,273.65
2023-01-22T11:03:36.000Z,273.71
2023-01-22T11:05:03.000Z,273.65
2023-01-22T11:07:09.000Z,273.71
2023-01-22T11:08:35.000Z,273.71
2023-01-22T11:10:41.000Z,273.77
2023-01-22T11:12:08.000Z,273.71
2023-01-22T11:14:14.000Z,273.71
2023-01-22T11:15:41.000Z,273.71
2023-01-22T11:17:47.000Z,273.77
2023-01-22T11:19:13.000Z,273.77
2023-01-22T11:21:25.000Z,273.71
2023-01-22T11:22:52.000Z,273.77
2023-01-22T11:24:58.000Z,273.77
2023-01-22T11:26:24.000Z,273.77
2023-01-22T11:28:30.000Z,273.71
2023-01-22T11:29:57.000Z,273.77
2023-01-22T11:32:03.000Z,273.71
2023-01-22T11:33:30.000Z,273.77
2023-01-22T11:35:36.000Z,273.71
2023-01-22T11:38:27.000Z,273.71
2023-01-22T11:39:53.000Z,273.71
2023-01-22T11:41:59.000Z,273.71
2023-01-22T11:43:26.000Z,273.77
2023-01-22T11:45:32.000Z,273.71
2023-01-22T11:46:59.000Z,273.71
2023-01-22T11:49:05.000Z,273.77
2023-01-22T11:50:31.000Z,273.77
2023-01-22T11:52:37.000Z,273.77
2023-01-22T11:54:04.000Z,273.77
2023-01-22T11:56:10.000Z,273.77
2023-01-22T11:57:37.000Z,273.77
2023-01-22T11:59:43.000Z,273.77
2023-01-22T12:01:09.000Z,273.77
2023-01-22T12:03:15.000Z,273.77
2023-01-22T12:04:42.000Z,273.77
2023-01-22T12:06:48.000Z,273.77
2023-01-22T12:08:14.000Z,273.77
2023-01-22T12:10:20.000Z,273.77
2023-01-22T12:11:47.000Z,273.71
2023-01-22T12:13:53.000Z,273.77
2023-01-22T12:16:44.000Z,273.77
2023-01-22T12:18:11.000Z,273.77
2023-01-22T12:20:17.000Z,273.77
2023-01-22T12:21:44.000Z,273.77
2023-01-22T12:23:50.000Z,273.77
2023-01-22T12:25:17.000Z,273.77
2023-01-22T12:27:23.000Z,273.77
2023-01-22T12:28:49.000Z,273.77
2023-01-22T12:30:56.000Z,273.71
2023-01-22T12:32:22.000Z,273.71
2023-01-22T12:34:28.000Z,273.77
2023-01-22T12:35:55.000Z,273.77
2023-01-22T12:38:01.000Z,273.77
2023-01-22T12:39:27.000Z,273.84
2023-01-22T12:41:34.000Z,273.84
2023-01-22T12:43:00.000Z,273.77
2023-01-22T12:45:06.000Z,273.77
2023-01-22T12:46:33.000Z,273.71
2023-01-22T12:48:39.000Z,273.71
2023-01-22T12:50:05.000Z,273.71
2023-01-22T12:52:12.000Z,273.71
2023-01-22T12:55:03.000Z,273.71
2023-01-22T12:56:29.000Z,273.71
2023-01-22T12:58:35.000Z,273.71
2023-01-22T13:00:02.000Z,273.71
2023-01-22T13:02:08.000Z,273.65
2023-01-22T13:03:35.000Z,273.71
2023-01-22T13:05:41.000Z,273.71
2023-01-22T13:07:07.000Z,273.71
2023-01-22T13:09:14.000Z,273.65
2023-01-22T13:10:40.000Z,273.65
2023-01-22T13:12:46.000Z,273.65
2023-01-22T13:14:13.000Z,273.71
2023-01-22T13:16:19.000Z,273.71
2023-01-22T13:17:46.000Z,273.65
2023-01-22T13:20:05.000Z,273.71
2023-01-22T13:21:32.000Z,273.65
2023-01-22T13:23:38.000Z,273.65
2023-01-22T13:25:05.000Z,273.65
2023-01-22T13:27:11.000Z,273.65
2023-01-22T13:28:37.000Z,273.65
2023-01-22T13:30:43.000Z,273.65
2023-01-22T13:33:34.000Z,273.65
2023-01-22T13:35:01.000Z,273.65
2023-01-22T13:37:07.000Z,273.65
2023-01-22T13:38:34.000Z,273.65
2023-01-22T13:40:40.000Z,273.65
2023-01-22T13:42:16.000Z,273.65
2023-01-22T13:44:22.000Z,273.59
2023-01-22T13:45:48.000Z,273.65
2023-01-22T13:47:54.000Z,273.71
2023-01-22T13:49:21.000Z,273.65
2023-01-22T13:51:27.000Z,273.71
2023-01-22T13:52:54.000Z,273.65
2023-01-22T13:55:00.000Z,273.71
2023-01-22T13:56:26.000Z,273.65
2023-01-22T13:58:32.000Z,273.71
2023-01-22T14:00:12.000Z,273.65
2023-01-22T14:02:18.000Z,273.65
2023-01-22T14:03:44.000Z,273.65
2023-01-22T14:05:51.000Z,273.65
2023-01-22T14:07:17.000Z,273.65
2023-01-22T14:09:23.000Z,273.65
2023-01-22T14:12:14.000Z,273.65
2023-01-22T14:13:41.000Z,273.65
2023-01-22T14:15:47.000Z,273.65
2023-01-22T14:17:14.000Z,273.65
2023-01-22T14:19:20.000Z,273.65
2023-01-22T14:20:46.000Z,273.65
2023-01-22T14:22:52.000Z,273.65
2023-01-22T14:24:19.000Z,273.65
2023-01-22T14:26:25.000Z,273.65
2023-01-22T14:27:51.000Z,273.65
2023-01-22T14:29:58.000Z,273.65
2023-01-22T14:31:24.000Z,273.59
2023-01-22T14:33:30.000Z,273.59
2023-01-22T14:34:57.000Z,273.59
2023-01-22T14:37:03.000Z,273.59
2023-01-22T14:38:30.000Z,273.59
2023-01-22T14:40:36.000Z,273.59
2023-01-22T14:42:02.000Z,273.59
2023-01-22T14:44:08.000Z,273.59
2023-01-22T14:45:35.000Z,273.59
2023-01-22T14:47:41.000Z,273.59
2023-01-22T14:50:32.000Z,273.59
2023-01-22T14:51:59.000Z,273.59
2023-01-22T14:54:05.000Z,273.59
2023-01-22T14:55:31.000Z,273.59
2023-01-22T14:57:38.000Z,273.59
2023-01-22T14:59:04.000Z,273.52
2023-01-22T15:01:10.000Z,273.59
2023-01-22T15:02:37.000Z,273.59
2023-01-22T15:04:43.000Z,273.59
2023-01-22T15:06:10.000Z,273.52
2023-01-22T15:08:16.000Z,273.52
2023-01-22T15:09:42.000Z,273.52
2023-01-22T15:11:48.000Z,273.52
2023-01-22T15:13:15.000Z,273.46
2023-01-22T15:15:21.000Z,273.52
2023-01-22T15:16:48.000Z,273.52
2023-01-22T15:18:54.000Z,273.52
2023-01-22T15:20:20.000Z,273.52
2023-01-22T15:22:24.000Z,273.52
2023-01-22T15:23:50.000Z,273.52
2023-01-22T15:25:54.000Z,273.46
2023-01-22T15:28:45.000Z,273.46
2023-01-22T15:30:10.000Z,273.46
2023-01-22T15:32:16.000Z,273.46
2023-01-22T15:33:40.000Z,273.46
2023-01-22T15:35:44.000Z,273.52
2023-01-22T15:37:08.000Z,273.46
2023-01-22T15:39:12.000Z,273.46
2023-01-22T15:40:36.000Z,273.46
2023-01-22T15:42:40.000Z,273.46
2023-01-22T15:44:05.000Z,273.46
2023-01-22T15:46:09.000Z,273.46
2023-01-22T15:47:34.000Z,273.46
2023-01-22T15:49:37.000Z,273.46
2023-01-22T15:51:02.000Z,273.46
2023-01-22T15:53:06.000Z,273.46
2023-01-22T15:54:31.000Z,273.46
2023-01-22T15:56:34.000Z,273.46
2023-01-22T15:57:59.000Z,273.46
2023-01-22T16:00:02.000Z,273.46
2023-01-22T16:01:27.000Z,273.46
2023-01-22T16:03:31.000Z,273.46
2023-01-22T16:06:20.000Z,273.46
2023-01-22T16:07:45.000Z,273.46
2023-01-22T16:09:53.000Z,273.46
2023-01-22T16:11:18.000Z,273.46
2023-01-22T16:13:21.000Z,273.46
2023-01-22T16:14:46.000Z,273.4
2023-01-22T16:16:49.000Z,273.46
2023-01-22T16:18:14.000Z,273.4
2023-01-22T16:20:18.000Z,273.46
2023-01-22T16:21:43.000Z,273.4
2023-01-22T16:23:47.000Z,273.4
2023-01-22T16:25:11.000Z,273.4
2023-01-22T16:27:15.000Z,273.4
2023-01-22T16:28:40.000Z,273.4
2023-01-22T16:30:43.000Z,273.4
2023-01-22T16:32:08.000Z,273.4
2023-01-22T16:34:12.000Z,273.4
2023-01-22T16:35:36.000Z,273.4
2023-01-22T16:37:40.000Z,273.4
2023-01-22T16:39:04.000Z,273.4
2023-01-22T16:41:08.000Z,273.46
2023-01-22T16:43:58.000Z,273.4
2023-01-22T16:45:22.000Z,273.4
2023-01-22T16:47:26.000Z,273.4
2023-01-22T16:48:50.000Z,273.4
2023-01-22T16:50:54.000Z,273.4
2023-01-22T16:52:18.000Z,273.4
2023-01-22T16:54:24.000Z,273.4
2023-01-22T16:55:49.000Z,273.4
2023-01-22T16:57:52.000Z,273.4
2023-01-22T16:59:17.000Z,273.4
2023-01-22T17:01:20.000Z,273.4
2023-01-22T17:02:45.000Z,273.4
2023-01-22T17:04:49.000Z,273.4
2023-01-22T17:06:13.000Z,273.34
2023-01-22T17:08:17.000Z,273.4
2023-01-22T17:09:41.000Z,273.34
2023-01-22T17:11:45.000Z,273.34
2023-01-22T17:13:09.000Z,273.34
2023-01-22T17:15:13.000Z,273.34
2023-01-22T17:16:38.000Z,273.4
2023-01-22T17:18:41.000Z,273.4
2023-01-22T17:21:30.000Z,273.34
2023-01-22T17:22:55.000Z,273.34
2023-01-22T17:24:58.000Z,273.34
2023-01-22T17:26:23.000Z,273.34
2023-01-22T17:28:26.000Z,273.4
2023-01-22T17:29:51.000Z,273.34
2023-01-22T17:31:55.000Z,273.34
2023-01-22T17:33:19.000Z,273.34
2023-01-22T17:35:23.000Z,273.34
2023-01-22T17:36:47.000Z,273.34
2023-01-22T17:38:51.000Z,273.34
2023-01-22T17:40:16.000Z,273.34
2023-01-22T17:42:19.000Z,273.34
2023-01-22T17:43:44.000Z,273.34
2023-01-22T17:45:48.000Z,273.34
2023-01-22T17:47:12.000Z,273.34
2023-01-22T17:49:16.000Z,273.34
2023-01-22T17:50:40.000Z,273.34
2023-01-22T17:52:44.000Z,273.34
2023-01-22T17:54:08.000Z,273.34
2023-01-22T17:56:12.000Z,273.34
2023-01-22T17:59:01.000Z,273.34
2023-01-22T18:00:26.000Z,273.34
2023-01-22T18:02:29.000Z,273.4
2023-01-22T18:03:54.000Z,273.4
2023-01-22T18:05:58.000Z,273.34
2023-01-22T18:07:22.000Z,273.34
2023-01-22T18:09:26.000Z,273.34
2023-01-22T18:10:50.000Z,273.34
2023-01-22T18:12:54.000Z,273.34
2023-01-22T18:14:18.000Z,273.34
2023-01-22T18:16:22.000Z,273.34
2023-01-22T18:17:47.000Z,273.34
2023-01-22T18:19:51.000Z,273.34
2023-01-22T18:21:15.000Z,273.34
2023-01-22T18:23:19.000Z,273.34
2023-01-22T18:24:43.000Z,273.34
2023-01-22T18:26:47.000Z,273.34
2023-01-22T18:28:11.000Z,273.34
2023-01-22T18:30:15.000Z,273.34
2023-01-22T18:31:39.000Z,273.34
2023-01-22T18:33:43.000Z,273.27
2023-01-22T18:36:32.000Z,273.34
2023-01-22T18:37:56.000Z,273.34
2023-01-22T18:40:00.000Z,273.34
2023-01-22T18:41:25.000Z,273.34
2023-01-22T18:43:28.000Z,273.34
2023-01-22T18:44:53.000Z,273.34
2023-01-22T18:46:56.000Z,273.34
2023-01-22T18:48:21.000Z,273.27
2023-01-22T18:50:24.000Z,273.34
2023-01-22T18:51:49.000Z,273.34
2023-01-22T18:53:52.000Z,273.34
2023-01-22T18:55:16.000Z,273.34
2023-01-22T18:57:20.000Z,273.34
2023-01-22T18:58:45.000Z,273.34
2023-01-22T19:00:48.000Z,273.34
2023-01-22T19:02:13.000Z,273.34
2023-01-22T19:04:16.000Z,273.34
2023-01-22T19:05:41.000Z,273.34
2023-01-22T19:07:44.000Z,273.27
2023-01-22T19:09:09.000Z,273.34
2023-01-22T19:11:12.000Z,273.27
2023-01-22T19:15:34.000Z,273.27
2023-01-22T19:16:08.000Z,273.27
2023-01-22T19:17:32.000Z,273.34
2023-01-22T19:19:36.000Z,273.34
2023-01-22T19:21:00.000Z,273.27
2023-01-22T19:23:04.000Z,273.27
2023-01-22T19:24:28.000Z,273.27
2023-01-22T19:26:32.000Z,273.27
2023-01-22T19:27:56.000Z,273.27
2023-01-22T19:30:00.000Z,273.27
2023-01-22T19:31:24.000Z,273.27
2023-01-22T19:33:28.000Z,273.27
2023-01-22T19:34:53.000Z,273.27
2023-01-22T19:36:56.000Z,273.27
2023-01-22T19:38:21.000Z,273.27
2023-01-22T19:40:24.000Z,273.27
2023-01-22T19:41:49.000Z,273.34
2023-01-22T19:43:52.000Z,273.27
2023-01-22T19:45:16.000Z,273.27
2023-01-22T19:47:21.000Z,273.27
2023-01-22T19:48:45.000Z,273.27
2023-01-22T19:50:49.000Z,273.27
2023-01-22T19:53:32.000Z,273.27
2023-01-22T19:54:56.000Z,273.34
2023-01-22T19:57:00.000Z,273.27
2023-01-22T19:58:24.000Z,273.27
2023-01-22T20:00:28.000Z,273.27
2023-01-22T20:01:52.000Z,273.27
2023-01-22T20:03:56.000Z,273.27
2023-01-22T20:05:21.000Z,273.27
2023-01-22T20:07:24.000Z,273.27
2023-01-22T20:08:49.000Z,273.27
2023-01-22T20:10:52.000Z,273.34
2023-01-22T20:12:17.000Z,273.27
2023-01-22T20:14:20.000Z,273.27
2023-01-22T20:15:45.000Z,273.27
2023-01-22T20:17:48.000Z,273.27
2023-01-22T20:19:12.000Z,273.27
2023-01-22T20:21:16.000Z,273.27
2023-01-22T20:22:40.000Z,273.27
2023-01-22T20:24:44.000Z,273.27
2023-01-22T20:26:08.000Z,273.27
2023-01-22T20:28:12.000Z,273.21
2023-01-22T20:31:01.000Z,273.27
2023-01-22T20:32:26.000Z,273.27
2023-01-22T20:34:30.000Z,273.21
2023-01-22T20:35:54.000Z,273.27
2023-01-22T20:37:57.000Z,273.27
2023-01-22T20:39:22.000Z,273.27
2023-01-22T20:41:25.000Z,273.21
2023-01-22T20:42:50.000Z,273.21
2023-01-22T20:44:53.000Z,273.21
2023-01-22T20:46:18.000Z,273.21
2023-01-22T20:48:21.000Z,273.21
2023-01-22T20:49:45.000Z,273.21
2023-01-22T20:51:49.000Z,273.21
2023-01-22T20:53:13.000Z,273.21
2023-01-22T20:55:17.000Z,273.21
2023-01-22T20:56:42.000Z,273.21
2023-01-22T20:58:46.000Z,273.21
2023-01-22T21:00:10.000Z,273.21
2023-01-22T21:02:14.000Z,273.21
2023-01-22T21:03:38.000Z,273.21
2023-01-22T21:05:42.000Z,273.21
2023-01-22T21:08:31.000Z,273.15
2023-01-22T21:09:55.000Z,273.15
2023-01-22T21:11:59.000Z,273.21
2023-01-22T21:13:23.000Z,273.21
2023-01-22T21:15:27.000Z,273.21
2023-01-22T21:16:51.000Z,273.21
2023-01-22T21:18:55.000Z,273.21
2023-01-22T21:20:19.000Z,273.21
2023-01-22T21:22:23.000Z,273.21
2023-01-22T21:23:47.000Z,273.21
2023-01-22T21:25:51.000Z,273.21
2023-01-22T21:27:15.000Z,273.21
2023-01-22T21:29:18.000Z,273.21
2023-01-22T21:30:43.000Z,273.21
2023-01-22T21:32:46.000Z,273.21
2023-01-22T21:34:11.000Z,273.21
2023-01-22T21:36:14.000Z,273.21
2023-01-22T21:37:39.000Z,273.21
2023-01-22T21:39:43.000Z,273.21
2023-01-22T21:41:07.000Z,273.21
2023-01-22T21:43:11.000Z,273.21
2023-01-22T21:46:00.000Z,273.21
2023-01-22T21:47:24.000Z,273.21
2023-01-22T21:49:28.000Z,273.21
2023-01-22T21:50:52.000Z,273.21
2023-01-22T21:52:56.000Z,273.21
2023-01-22T21:54:20.000Z,273.21
2023-01-22T21:56:24.000Z,273.21
2023-01-22T21:57:48.000Z,273.21
2023-01-22T21:59:52.000Z,273.21
2023-01-22T22:01:17.000Z,273.21
2023-01-22T22:03:20.000Z,273.21
2023-01-22T22:04:45.000Z,273.15
2023-01-22T22:06:48.000Z,273.21
2023-01-22T22:08:13.000Z,273.21
2023-01-22T22:10:16.000Z,273.21
2023-01-22T22:11:41.000Z,273.21
2023-01-22T22:13:45.000Z,273.21
2023-01-22T22:15:09.000Z,273.21
2023-01-22T22:17:13.000Z,273.21
2023-01-22T22:18:37.000Z,273.15
2023-01-22T22:20:41.000Z,273.21
2023-01-22T22:23:30.000Z,273.21
2023-01-22T22:24:54.000Z,273.15
2023-01-22T22:26:58.000Z,273.21
2023-01-22T22:28:22.000Z,273.21
2023-01-22T22:30:26.000Z,273.15
2023-01-22T22:31:50.000Z,273.21